^^
Datos históricos de la estación: Murcia-Puente Tocinos
Diario Informe para Abril 27, 2019 Unidades:  Ingés    Métrico   Ambas
Diario Semanal Mensual Anual
  Máxima: Mínima: Promedio:
Temperatura: 86.5 °F 68 °F 75.7 °F
Punto de rocio: 71.4 °F 61.2 °F 66.9 °F
Humedad: 91% 48.3% 76%
Velocidad viento: 19.2mph 0mph 4.2mph
Racha viento: 35mph - -
Viento- - SSE
Presión: 30 in 29.9 in -
Precipitación: 0.63 in    
 
 
Tabla de datos para Abril 27, 2019
Hora Temperatura Punto de rocio Presión Viento Velocidad viento Racha viento Humedad Intensidad lluvia(por hora) Nubes
00:04 77.4 °F 70.9 °F 29.9 in NNE 3.1 mph 6.2 mph 80.3% 0 in
00:09 77.4 °F 70.9 °F 29.9 in NNE 3.1 mph 8.1 mph 80.5% 0 in
00:14 77.2 °F 70.9 °F 29.9 in NNE 3.1 mph 8 mph 81% 0 in
00:19 77.2 °F 70.9 °F 29.9 in NNE 3.4 mph 7 mph 81% 0 in
00:24 77.2 °F 71.2 °F 29.9 in NE 4 mph 8.7 mph 81.9% 0 in
00:29 76.8 °F 70.9 °F 29.9 in NNE 4.4 mph 9.2 mph 82% 0 in
00:34 76.8 °F 70.9 °F 29.9 in NE 5.4 mph 11.2 mph 82.1% 0 in
00:39 76.6 °F 71.1 °F 29.9 in NE 5.7 mph 12 mph 83% 0.01 in
00:44 76.6 °F 71.2 °F 29.9 in NO 6.2 mph 12 mph 83.3% 0.01 in
00:49 76.5 °F 71.2 °F 29.9 in NNE 5.3 mph 9.7 mph 84% 0.01 in
00:54 76.5 °F 71.2 °F 29.9 in NNE 2.9 mph 10 mph 84.4% 0.02 in
00:59 76.1 °F 71.4 °F 29.9 in NNE 3.9 mph 11.5 mph 85.4% 0.02 in
01:04 75.7 °F 71.4 °F 29.9 in NNE 6.2 mph 12 mph 86.5% 0.02 in
01:09 75.6 °F 71.4 °F 29.9 in NNE 5.8 mph 10.4 mph 87% 0.02 in
01:14 75.6 °F 71.4 °F 29.9 in NE 4.7 mph 13.8 mph 87% 0.02 in
01:19 75.4 °F 71.2 °F 29.9 in NE 5 mph 14 mph 86.9% 0.02 in
01:24 75.4 °F 70.9 °F 29.9 in NE 5.9 mph 10.4 mph 86% 0.02 in
01:29 75.4 °F 70.9 °F 29.9 in NE 5.7 mph 9 mph 86% 0.02 in
01:34 75.4 °F 70.9 °F 29.9 in NE 5.2 mph 7.4 mph 86% 0.02 in
01:39 75.4 °F 71.2 °F 29.9 in ENE 4.7 mph 7 mph 86.9% 0.02 in
01:44 75.4 °F 71.2 °F 29.9 in ENE 3.1 mph 3 mph 87% 0.01 in
01:49 75.4 °F 71.2 °F 29.9 in NO 2.7 mph 5.9 mph 87% 0.01 in
01:54 75.2 °F 71.1 °F 29.9 in Oeste 1.8 mph 6 mph 87% 0.01 in
01:59 75.2 °F 71.1 °F 29.9 in OSO 2.1 mph 5.2 mph 87% 0 in
02:04 75.2 °F 71.1 °F 29.9 in SO 2.9 mph 5 mph 87% 0 in
02:09 75.2 °F 71.1 °F 29.9 in SO 2.7 mph 5.4 mph 87% 0 in
02:14 75.4 °F 71.2 °F 29.9 in OSO 2.4 mph 6.2 mph 87% 0 in
02:19 75.6 °F 71.1 °F 29.9 in OSO 2.6 mph 6 mph 86.2% 0 in
02:24 75.6 °F 71.1 °F 29.9 in OSO 3.1 mph 5 mph 86% 0 in
02:29 75.7 °F 71.2 °F 29.9 in OSO 2.7 mph 4 mph 86% 0 in
02:34 75.7 °F 71.2 °F 29.9 in SSO 1.8 mph 4.6 mph 86% 0 in
02:39 75.7 °F 71.4 °F 29.9 in Este 1.7 mph 5 mph 86% 0 in
02:44 75.7 °F 71.2 °F 29.9 in ESE 1.4 mph 5.2 mph 86% 0 in
02:49 75.6 °F 71.1 °F 29.9 in Este 1.7 mph 5 mph 86% 0 in
02:54 75.4 °F 71.1 °F 29.9 in Este 2.4 mph 3.6 mph 86.8% 0 in
02:59 75.4 °F 71.2 °F 29.9 in SE 2.3 mph 4.6 mph 87% 0 in
03:04 75.4 °F 71.2 °F 29.9 in SSE 2 mph 5 mph 87.3% 0 in
03:09 75.2 °F 71.1 °F 29.9 in Sur 2.1 mph 5 mph 87% 0 in
03:14 75 °F 71.1 °F 29.9 in Sur 2.4 mph 5 mph 87.1% 0 in
03:19 75 °F 71.2 °F 29.9 in Sur 1.7 mph 2 mph 88% 0 in
03:24 75 °F 71.2 °F 29.9 in Calm   5.2 mph 87.8% 0 in
03:29 75.2 °F 71.1 °F 29.9 in ONO 0.4 mph 5 mph 87% 0 in
03:34 75.2 °F 71.1 °F 29.9 in Oeste 1.8 mph 5 mph 87% 0 in
03:39 75.2 °F 70.9 °F 29.9 in NO 1.4 mph 3 mph 86.6% 0 in
03:44 75.2 °F 70.9 °F 29.9 in Calm   6.4 mph 86.5% 0 in
03:49 75.2 °F 71.2 °F 29.9 in SE 0.8 mph 7 mph 87.4% 0 in
03:54 75 °F 71.2 °F 29.9 in SE 2.9 mph 6.9 mph 88.2% 0 in
03:59 74.8 °F 71.4 °F 29.9 in SE 3.2 mph 7.4 mph 89% 0 in
04:04 74.7 °F 71.2 °F 29.9 in Este 4 mph 7 mph 89% 0 in
04:09 74.5 °F 71.1 °F 29.9 in ESE 3.9 mph 6.2 mph 89% 0 in
04:14 74.5 °F 71.2 °F 29.9 in SE 3.6 mph 6 mph 89.6% 0 in
04:19 74.5 °F 71.2 °F 29.9 in SSE 3.3 mph 6 mph 89.8% 0 in
04:24 74.5 °F 71.1 °F 29.9 in SSE 2.4 mph 5 mph 89% 0 in
04:29 74.5 °F 71.1 °F 29.9 in SSE 2.2 mph 5.2 mph 89.1% 0 in
04:34 74.7 °F 71.2 °F 29.9 in Sur 1.8 mph 5.9 mph 89% 0 in
04:39 74.8 °F 71.2 °F 29.9 in Sur 2.5 mph 7.4 mph 88.7% 0 in
04:44 74.8 °F 71.2 °F 29.9 in Sur 4.3 mph 7 mph 88.7% 0.01 in
04:49 74.8 °F 71.2 °F 29.9 in Sur 4.4 mph 8.5 mph 88.4% 0.03 in
04:54 74.8 °F 71.4 °F 29.9 in SO 4.7 mph 9 mph 89% 0.04 in
04:59 74.8 °F 71.4 °F 29.9 in Oeste 4.6 mph 8 mph 89% 0.04 in
05:04 74.8 °F 71.4 °F 29.9 in ONO 4.3 mph 6 mph 89.3% 0.04 in
05:09 74.8 °F 71.4 °F 29.9 in North 3.7 mph 5.9 mph 89.1% 0.04 in
05:14 74.7 °F 71.4 °F 29.9 in NE 2 mph 6.9 mph 90% 0.04 in
05:19 74.5 °F 71.4 °F 29.9 in NE 2.2 mph 7 mph 90% 0.04 in
05:24 74.3 °F 71.2 °F 29.9 in Oeste 2.9 mph 6.2 mph 90% 0.04 in
05:29 74.3 °F 71.2 °F 29.9 in SO 2.9 mph 6.9 mph 90% 0.04 in
05:34 74.1 °F 71.1 °F 29.9 in SO 3.1 mph 7 mph 90% 0.04 in
05:39 74.1 °F 71.1 °F 29.9 in OSO 3.2 mph 6.2 mph 90% 0.04 in
05:44 74.3 °F 71.1 °F 29.9 in OSO 3.6 mph 9.2 mph 89.7% 0.04 in
05:49 74.5 °F 70.9 °F 29.9 in Oeste 3.6 mph 9.2 mph 89% 0.03 in
05:54 74.5 °F 71.1 °F 29.9 in OSO 3.6 mph 8 mph 89% 0.01 in
05:59 74.7 °F 71.2 °F 29.9 in OSO 3.7 mph 7 mph 89% 0 in
06:04 74.7 °F 71.2 °F 29.9 in Oeste 4 mph 6 mph 89% 0 in
06:09 74.7 °F 71.1 °F 29.9 in ONO 3.5 mph 8.1 mph 88.3% 0 in
06:14 74.5 °F 70 °F 29.9 in ONO 2 mph 8.5 mph 86.3% 0 in
06:19 74.3 °F 69.1 °F 29.9 in ONO 3.1 mph 11.5 mph 84.1% 0 in
06:24 74.1 °F 68.4 °F 29.9 in Oeste 5.9 mph 12 mph 82.2% 0 in
06:29 73.9 °F 67.6 °F 29.9 in OSO 5.5 mph 9 mph 80.9% 0 in
06:34 73.9 °F 67.5 °F 29.9 in ONO 4.3 mph 7.4 mph 80.2% 0 in
06:39 73.9 °F 66.7 °F 29.9 in Oeste 4 mph 10.7 mph 78.3% 0 in
06:44 73.8 °F 65.5 °F 29.9 in ONO 3.1 mph 11 mph 75.4% 0 in
06:49 73.6 °F 65.1 °F 29.9 in OSO 3.7 mph 10 mph 75% 0 in
06:54 73.4 °F 65.3 °F 29.9 in Oeste 5.4 mph 7.4 mph 75.6% 0 in
06:59 73.4 °F 65.5 °F 29.9 in ONO 4.7 mph 7 mph 76% 0 in
07:04 73.2 °F 65.3 °F 29.9 in SSO 3.1 mph 5.9 mph 76% 0 in
07:09 73.2 °F 65.3 °F 29.9 in SSO 3.1 mph 6.9 mph 76% 0 in
07:14 73.2 °F 64.8 °F 29.9 in SSO 3.1 mph 7.6 mph 75% 0 in
07:19 73.2 °F 64.6 °F 29.9 in SO 3.4 mph 8 mph 74.4% 0 in
07:24 73.2 °F 64.4 °F 29.9 in SO 4.3 mph 6 mph 74% 0 in
07:29 73.4 °F 64.4 °F 29.9 in SO 4.2 mph 8.5 mph 73.7% 0 in
07:34 73.2 °F 63.5 °F 29.9 in OSO 4 mph 9 mph 71.6% 0 in
07:39 73.4 °F 63.3 °F 29.9 in OSO 4.3 mph 10.4 mph 71% 0 in
07:44 73.4 °F 63.5 °F 29.9 in OSO 5.2 mph 10 mph 71.1% 0 in
07:49 73.4 °F 63.7 °F 29.9 in ONO 4.7 mph 7 mph 71.6% 0 in
07:54 73.4 °F 63.7 °F 29.9 in OSO 3.1 mph 9.2 mph 71.8% 0 in
07:59 73.4 °F 63.5 °F 29.9 in OSO 3.5 mph 9 mph 71.3% 0 in
08:04 73.4 °F 63.3 °F 29.9 in SO 4.3 mph 9 mph 71% 0 in
08:09 73.4 °F 63.3 °F 29.9 in OSO 4.1 mph 7 mph 71% 0 in
08:14 73.4 °F 63.5 °F 29.9 in OSO 3.6 mph 7 mph 71.1% 0 in
08:19 73.6 °F 63.9 °F 29.9 in OSO 3.8 mph 8.1 mph 71.7% 0 in
08:24 73.6 °F 63.7 °F 29.9 in OSO 4.3 mph 8 mph 71.1% 0 in
08:29 73.8 °F 63.3 °F 29.9 in Oeste 4.3 mph 9.2 mph 70.1% 0 in
08:34 73.8 °F 63.5 °F 29.9 in Oeste 4.3 mph 9.2 mph 70% 0 in
08:39 73.9 °F 63.5 °F 29.9 in Oeste 4.4 mph 9 mph 70% 0 in
08:44 73.9 °F 63.5 °F 29.9 in OSO 4.7 mph 8.5 mph 70% 0 in
08:49 73.8 °F 63.3 °F 29.9 in OSO 4.6 mph 9 mph 70% 0 in
08:54 73.8 °F 63.3 °F 29.9 in OSO 4.3 mph 8.1 mph 70% 0 in
08:59 73.8 °F 63.3 °F 29.9 in Oeste 4.6 mph 8.5 mph 70% 0 in
09:04 73.6 °F 63.3 °F 29.9 in Oeste 5.2 mph 9 mph 70% 0 in
09:09 73.6 °F 63.5 °F 29.9 in OSO 4.8 mph 7 mph 71% 0 in
09:14 73.6 °F 63.3 °F 29.9 in SO 3.6 mph 6.2 mph 70.3% 0 in
09:19 73.8 °F 63 °F 29.9 in SO 3.5 mph 7.4 mph 69% 0 in
09:24 73.9 °F 63.1 °F 29.9 in SSO 3.1 mph 7 mph 69% 0 in
09:29 74.1 °F 63 °F 29.9 in SSO 3.4 mph 6.2 mph 68.1% 0 in
09:34 74.1 °F 62.8 °F 29.9 in SO 4 mph 6.9 mph 67.7% 0 in
09:39 74.3 °F 62.6 °F 29.9 in SSO 4 mph 7 mph 67% 0 in
09:44 74.3 °F 62.6 °F 29.9 in SSO 4 mph 9.2 mph 67% 0 in
09:49 74.5 °F 62.8 °F 29.9 in SSO 4.4 mph 9 mph 66.8% 0 in
09:54 74.7 °F 63 °F 29.9 in SSO 5.4 mph 9.2 mph 66.8% 0 in
09:59 74.8 °F 63 °F 29.9 in SSO 5.3 mph 9 mph 66.9% 0 in
10:04 75 °F 63 °F 29.9 in SSO 5.2 mph 8.7 mph 66.2% 0 in
10:09 75.6 °F 63 °F 29.9 in SSO 5 mph 9.2 mph 65.1% 0 in
10:14 75.7 °F 63 °F 29.9 in OSO 4.3 mph 9 mph 64.6% 0 in
10:19 75.9 °F 63 °F 29.9 in Oeste 4.3 mph 8.1 mph 64.2% 0 in
10:24 76.3 °F 63.3 °F 29.9 in Oeste 4.3 mph 8 mph 64.5% 0 in
10:29 76.3 °F 63.3 °F 29.9 in NO 4.1 mph 7.4 mph 64.2% 0 in
10:34 76.5 °F 63.3 °F 29.9 in OSO 3.6 mph 8.1 mph 64% 0 in
10:39 76.6 °F 63.5 °F 29.9 in SO 3.7 mph 8.1 mph 64% 0 in
10:44 76.6 °F 63.7 °F 29.9 in SO 4 mph 8 mph 64% 0 in
10:49 77.4 °F 63.9 °F 29.9 in OSO 4 mph 7 mph 63.3% 0 in
10:54 77.5 °F 64 °F 29.9 in Oeste 4 mph 7 mph 62.9% 0 in
10:59 78.3 °F 64 °F 29.9 in OSO 4.1 mph 9.7 mph 61.9% 0 in
11:04 78.4 °F 64 °F 29.9 in SSO 4.3 mph 10 mph 61.1% 0 in
11:09 78.6 °F 63.9 °F 29.9 in Oeste 4.5 mph 9 mph 60.5% 0 in
11:14 79.2 °F 64.2 °F 29.9 in SO 5.2 mph 8.1 mph 60.4% 0 in
11:19 79.3 °F 64.2 °F 29.9 in Oeste 4.6 mph 8 mph 60% 0 in
11:24 80.1 °F 64.2 °F 29.9 in SO 3.1 mph 7.4 mph 58.8% 0 in
11:29 80.1 °F 64.4 °F 29.9 in OSO 3.2 mph 9.2 mph 59.1% 0 in
11:34 80.1 °F 64.4 °F 29.9 in OSO 3.6 mph 10.4 mph 58.8% 0 in
11:39 80.1 °F 64.4 °F 29.9 in ONO 4 mph 10 mph 58.8% 0 in
11:44 80.2 °F 64.8 °F 29.9 in OSO 5.2 mph 7 mph 59% 0 in
11:49 80.8 °F 64.8 °F 29.9 in Sur 4.8 mph 9.7 mph 58.4% 0 in
11:54 81.1 °F 64.9 °F 29.9 in Sur 4 mph 10 mph 58% 0 in
11:59 81.3 °F 65.3 °F 29.9 in SSO 4.4 mph 10 mph 58.5% 0 in
12:04 81.3 °F 65.3 °F 29.9 in SSO 5.4 mph 10 mph 58.4% 0 in
12:09 81.7 °F 65.7 °F 29.9 in SO 5.2 mph 8.1 mph 58.6% 0 in
12:14 81.7 °F 65.3 °F 29.9 in SO 4.7 mph 8.1 mph 57.6% 0 in
12:19 81.9 °F 65.5 °F 29.9 in SSO 4.6 mph 6 mph 57.6% 0 in
12:24 82 °F 65.7 °F 29.9 in SO 4.3 mph 6.2 mph 57.5% 0 in
12:29 82.6 °F 65.7 °F 29.9 in ESE 3.8 mph 6 mph 56.7% 0 in
12:34 83.5 °F 65.8 °F 29.9 in ENE 2.4 mph 6.9 mph 55.5% 0 in
12:39 83.7 °F 65.8 °F 29.9 in ONO 2.5 mph 7 mph 54.9% 0 in
12:44 83.8 °F 65.5 °F 29.9 in Sur 2.9 mph 7.4 mph 54.1% 0 in
12:49 83.8 °F 65.7 °F 29.9 in SE 2.9 mph 7 mph 54.4% 0 in
12:54 84.2 °F 65.8 °F 29.9 in ESE 2.9 mph 5 mph 54% 0 in
12:59 84.7 °F 66 °F 29.9 in SSO 2.6 mph 8.1 mph 53.4% 0 in
13:04 84.9 °F 65.8 °F 29.9 in SE 2 mph 8.1 mph 52.8% 0 in
13:09 84.7 °F 65.7 °F 29.9 in ESE 2.5 mph 8.5 mph 52.8% 0 in
13:14 84.7 °F 66 °F 29.9 in NE 4 mph 9 mph 53.5% 0 in
13:19 84.9 °F 66 °F 29.9 in SE 4.1 mph 11.8 mph 53.3% 0 in
13:24 84.9 °F 65.8 °F 29.9 in SE 4.3 mph 12 mph 52.8% 0 in
13:29 84.9 °F 65.5 °F 29.9 in SE 4.8 mph 12 mph 52.5% 0 in
13:34 84.7 °F 65.7 °F 29.9 in SSE 6.4 mph 9 mph 53% 0 in
13:39 84.7 °F 65.8 °F 29.9 in SSE 5.5 mph 8.1 mph 53% 0 in
13:44 84.9 °F 65.7 °F 29.9 in SE 3.1 mph 11.8 mph 52.6% 0 in
13:49 84.9 °F 65.7 °F 29.9 in ESE 3.7 mph 12 mph 52.7% 0 in
13:54 84.9 °F 65.3 °F 29.9 in Este 5.4 mph 10 mph 52.1% 0 in
13:59 85.3 °F 65.5 °F 29.9 in Este 5.4 mph 10 mph 51.8% 0 in
14:04 85.3 °F 65.3 °F 29.9 in ENE 5.4 mph 10 mph 51.2% 0 in
14:09 85.3 °F 64.9 °F 29.9 in NE 5.7 mph 12.7 mph 50.7% 0 in
14:14 85.3 °F 65.1 °F 29.9 in NE 6.2 mph 13 mph 50.9% 0 in
14:19 85.6 °F 65.1 °F 29.9 in ENE 5.9 mph 8.1 mph 50.6% 0 in
14:24 85.6 °F 64.6 °F 29.9 in ESE 5.2 mph 8 mph 49.4% 0 in
14:29 85.6 °F 64.4 °F 29.9 in ENE 4.9 mph 7 mph 49% 0 in
14:34 86 °F 64.2 °F 29.9 in ENE 4 mph 7 mph 48.3% 0 in
14:39 86.4 °F 64.8 °F 29.9 in Este 4 mph 8.5 mph 48.5% 0 in
14:44 86.5 °F 66.4 °F 29.9 in ENE 4 mph 14.7 mph 51.2% 0 in
14:49 86.4 °F 66.6 °F 29.9 in ENE 4.8 mph 15 mph 51.6% 0 in
14:54 86.4 °F 66.4 °F 29.9 in NE 6.9 mph 15 mph 51.4% 0 in
14:59 86.4 °F 66.6 °F 29.9 in Este 7.3 mph 16.3 mph 51.5% 0 in
15:04 86.5 °F 66.4 °F 29.9 in Este 8.1 mph 16 mph 51.3% 0 in
15:09 86.4 °F 66 °F 29.9 in ENE 7.9 mph 15.2 mph 50.9% 0 in
15:14 85.8 °F 65.8 °F 29.9 in NE 7.4 mph 19 mph 51.3% 0 in
15:19 85.8 °F 65.8 °F 29.9 in ENE 7.9 mph 20.1 mph 51.2% 0 in
15:24 85.5 °F 65.7 °F 29.9 in Este 9.2 mph 21 mph 51.8% 0 in
15:29 85.1 °F 65.5 °F 29.9 in NE 9.3 mph 21 mph 52% 0 in
15:34 84.7 °F 65.7 °F 29.9 in ENE 9.7 mph 18.4 mph 52.8% 0 in
15:39 84.4 °F 65.5 °F 29.9 in ENE 9.4 mph 18 mph 53.2% 0 in
15:44 84 °F 65.7 °F 29.9 in ENE 8.7 mph 17.3 mph 54% 0 in
15:49 83.8 °F 65.7 °F 29.9 in ENE 8.8 mph 17.8 mph 54.5% 0 in
15:54 83.7 °F 66.2 °F 29.9 in NE 9.2 mph 22.5 mph 55.9% 0 in
15:59 82.9 °F 66 °F 29.9 in NE 10.2 mph 34.4 mph 56.6% 0 in
16:04 80.6 °F 62.1 °F 29.9 in NE 12.3 mph 35 mph 53.3% 0 in
16:09 78.8 °F 61.2 °F 29.9 in NE 14.1 mph 32.2 mph 54.7% 0 in
16:14 77 °F 61.7 °F 29.9 in ENE 19.2 mph 32 mph 59.2% 0.03 in
16:19 75 °F 62.8 °F 29.9 in ESE 16.7 mph 18.4 mph 66% 0.06 in
16:24 72 °F 63.1 °F 29.9 in Este 10 mph 19.7 mph 73.8% 0.14 in
16:29 70.2 °F 63.5 °F 29.9 in Este 9.9 mph 20 mph 79.6% 0.14 in
16:34 69.1 °F 63.5 °F 29.9 in ESE 9.7 mph 16 mph 82.6% 0.14 in
16:39 68.7 °F 64 °F 29.9 in Este 8.9 mph 15 mph 85.2% 0.18 in
16:44 68.5 °F 64.4 °F 29.9 in Sur 6.9 mph 11.8 mph 86.5% 0.2 in
16:49 68.5 °F 64.8 °F 29.9 in Sur 7.1 mph 12.7 mph 87.5% 0.25 in
16:54 68.5 °F 65.1 °F 29.9 in SSE 7.6 mph 13 mph 88.6% 0.3 in
16:59 68.9 °F 65.7 °F 29.9 in SE 7.8 mph 14 mph 89.7% 0.41 in
17:04 68.9 °F 65.8 °F 29.9 in SE 8.1 mph 14 mph 90% 0.46 in
17:09 68.4 °F 65.5 °F 29.9 in SSE 8.2 mph 13 mph 90.3% 0.48 in
17:14 68.4 °F 65.7 °F 29.9 in SSO 8.5 mph 13 mph 91% 0.48 in
17:19 68.4 °F 65.7 °F 29.9 in SSO 8.4 mph 15 mph 91% 0.48 in
17:24 68.4 °F 65.7 °F 29.9 in Sur 8.1 mph 15 mph 91% 0.44 in
17:29 68.2 °F 65.1 °F 29.9 in Sur 8.2 mph 14 mph 90% 0.41 in
17:34 68 °F 64.8 °F 29.9 in Sur 8.5 mph 14 mph 89.6% 0.41 in
17:39 68 °F 64.6 °F 29.9 in SSO 8.2 mph 12 mph 89.1% 0.41 in
17:44 68.2 °F 64.6 °F 29.9 in Sur 7.4 mph 13.8 mph 88.3% 0.37 in
17:49 68.5 °F 64.9 °F 29.9 in SO 7.1 mph 14 mph 88.3% 0.34 in
17:54 68.9 °F 65.7 °F 29.9 in NNO 6.4 mph 9 mph 89.4% 0.29 in
17:59 69.4 °F 66.4 °F 29.9 in Este 5 mph 6 mph 89.9% 0.24 in
18:04 69.4 °F 65.8 °F 29.9 in SO 1.8 mph 5.4 mph 88.1% 0.15 in
18:09 69.8 °F 66 °F 29.9 in ONO 2.1 mph 6 mph 87.6% 0.1 in
18:14 70.2 °F 66.2 °F 29.9 in NNO 2.9 mph 6 mph 87% 0.08 in
18:19 70.5 °F 66.6 °F 29.9 in North 2.9 mph 5.9 mph 86.9% 0.05 in
18:24 70.9 °F 66.6 °F 29.9 in NNO 3.1 mph 8.1 mph 86.4% 0.04 in
18:29 71.1 °F 66.7 °F 29.9 in NNO 3.5 mph 9.2 mph 86% 0.02 in
18:34 71.1 °F 66.7 °F 29.9 in NNO 4.7 mph 9 mph 86.3% 0.02 in
18:39 71.4 °F 66.9 °F 29.9 in NNO 4.6 mph 7 mph 86% 0.01 in
18:44 71.6 °F 66.9 °F 29.9 in NNO 4.3 mph 7 mph 85.7% 0.01 in
18:49 71.6 °F 66.9 °F 29.9 in NO 3.8 mph 5.9 mph 85% 0.01 in
18:54 71.8 °F 67.1 °F 29.9 in NO 2.4 mph 6 mph 85% 0.01 in
18:59 72 °F 66.9 °F 29.9 in ONO 2.6 mph 6 mph 84.5% 0 in
19:04 72 °F 66.6 °F 29.9 in ONO 3.1 mph 5 mph 83.2% 0 in
19:09 72.1 °F 66.6 °F 29.9 in Oeste 3 mph 5.8 mph 82.5% 0 in
19:14 72.1 °F 66.2 °F 29.9 in Oeste 2.9 mph 6 mph 81.5% 0 in
19:19 72.1 °F 66.4 °F 29.9 in OSO 2.7 mph 6 mph 81.8% 0 in
19:24 72.3 °F 66.6 °F 29.9 in SSO 2.4 mph 4 mph 82% 0 in
19:29 72.5 °F 66.4 °F 29.9 in Sur 1.7 mph 4 mph 81.3% 0 in
19:34 72.7 °F 66.4 °F 29.9 in Calm   7.4 mph 80.8% 0 in
19:39 72.9 °F 66.4 °F 29.9 in SSO 1 mph 7 mph 80.2% 0 in
19:44 72.9 °F 66.7 °F 29.9 in SSO 3.6 mph 6 mph 80.8% 0 in
19:49 73.2 °F 67.1 °F 29.9 in OSO 2.6 mph 1 mph 81% 0 in
19:54 73.6 °F 67.3 °F 29.9 in Calm     81% 0 in
19:59 73.8 °F 67.1 °F 29.9 in Calm     79.9% 0 in
20:04 73.9 °F 67.3 °F 29.9 in Calm   5.4 mph 79.5% 0 in
20:09 74.1 °F 67.5 °F 29.9 in NE 0.4 mph 6 mph 79.6% 0 in
20:14 73.9 °F 67.5 °F 29.9 in ESE 1.8 mph 6 mph 80% 0 in
20:19 73.9 °F 67.6 °F 29.9 in SE 2 mph 5.2 mph 80.9% 0 in
20:24 73.9 °F 67.6 °F 29.9 in SE 2.4 mph 5.2 mph 81% 0 in
20:29 73.8 °F 67.6 °F 29.9 in SE 2.6 mph 5 mph 81.3% 0 in
20:34 73.4 °F 67.3 °F 29.9 in SE 3.1 mph 6.9 mph 81.2% 0 in
20:39 73 °F 67.3 °F 29.9 in ESE 3.4 mph 7 mph 81.9% 0 in
20:44 73 °F 67.3 °F 29.9 in ESE 4 mph 6 mph 82.2% 0 in
20:49 73 °F 67.6 °F 29.9 in ESE 3.7 mph 6 mph 83% 0 in
20:54 72.9 °F 67.5 °F 29.9 in ESE 3.1 mph 6 mph 82.9% 0 in
20:59 72.9 °F 67.5 °F 29.9 in SE 3.1 mph 6 mph 83% 0 in
21:04 72.9 °F 67.1 °F 29.9 in Este 3.1 mph 5.2 mph 82.4% 0 in
21:09 72.9 °F 66.9 °F 29.9 in ENE 3 mph 5 mph 82% 0 in
21:14 72.9 °F 66.9 °F 29.9 in Este 2.9 mph 6.2 mph 82% 0 in
21:19 72.9 °F 66.9 °F 29.9 in ENE 2.9 mph 6.9 mph 82% 0 in
21:24 72.9 °F 67.3 °F 29.9 in Este 3.1 mph 7 mph 82.8% 0 in
21:29 72.9 °F 67.3 °F 29.9 in Este 3.1 mph 5.2 mph 82.8% 0 in
21:34 72.7 °F 66.9 °F 30 in NE 3.1 mph 6.4 mph 82% 0 in
21:39 72.5 °F 66.7 °F 30 in NE 3.4 mph 8.1 mph 82% 0 in
21:44 72.3 °F 66.6 °F 30 in NE 4 mph 9.7 mph 82% 0 in
21:49 72.3 °F 66.6 °F 30 in NE 4.5 mph 10 mph 82% 0 in
21:54 72.3 °F 66.6 °F 30 in NNE 5.9 mph 9 mph 82.3% 0 in
21:59 72 °F 66.9 °F 30 in NE 5.5 mph 8.5 mph 83.7% 0 in
22:04 71.8 °F 66.7 °F 30 in NE 4.7 mph 9 mph 84% 0 in
22:09 71.8 °F 66.7 °F 30 in NE 4.6 mph 8.1 mph 84% 0 in
22:14 71.8 °F 66.7 °F 30 in ESE 4.3 mph 8 mph 84% 0 in
22:19 71.8 °F 66.6 °F 30 in ESE 4.2 mph 7 mph 83.6% 0 in
22:24 71.8 °F 66.2 °F 30 in ESE 4 mph 6.9 mph 82.9% 0 in
22:29 71.8 °F 66 °F 30 in ESE 3.9 mph 7 mph 82% 0 in
22:34 72 °F 65.8 °F 30 in ESE 3.6 mph 6 mph 81.3% 0 in
22:39 72.1 °F 66 °F 30 in ESE 3.3 mph 5 mph 81% 0 in
22:44 72.1 °F 66 °F 30 in NE 2.4 mph 3 mph 80.9% 0 in
22:49 72.1 °F 66.4 °F 30 in NE 1.7 mph   82% 0 in
22:54 72.1 °F 66.4 °F 30 in Calm     82% 0 in
22:59 72.1 °F 66.2 °F 30 in Calm     82% 0 in
23:04 72 °F 66.4 °F 30 in Calm     82.4% 0 in
23:09 72 °F 66.2 °F 30 in Calm     82% 0 in
23:14 71.8 °F 65.7 °F 30 in Calm     81.2% 0 in
23:19 71.8 °F 65.8 °F 30 in Calm     81.5% 0 in
23:24 71.8 °F 65.8 °F 30 in Calm     81.6% 0 in
23:29 71.8 °F 66 °F 30 in Calm   4 mph 82% 0 in
23:34 71.8 °F 66.2 °F 30 in Calm   5 mph 83% 0 in
23:39 71.6 °F 66 °F 30 in Sur 0.8 mph 5.2 mph 82.2% 0 in
23:44 71.8 °F 66 °F 30 in SSE 2.9 mph 5 mph 82.3% 0 in
23:49 71.8 °F 65.8 °F 30 in ENE 2.6 mph 4.7 mph 81.6% 0 in
23:54 71.8 °F 65.7 °F 30 in North 1.8 mph 5 mph 81.3% 0 in
23:59 71.6 °F 65.5 °F 30 in NE 1.7 mph 3 mph 81% 0 in
Murcia-Puente Tocinos, España
Compliments of Weather Underground - 3 mb

La estación de MeteoMurcia.com, publica sus datos en los siguientes proyectos:

Weather Underground PWS IMURCIAP2 Meteoclimatic www.awekas.at

W3Counter
Web Analytics